sensor_id;sensor_type;location;lat;lon;timestamp;P1;durP1;ratioP1;P2;durP2;ratioP2
47545;SDS011;50104;52.002;4.688;2023-04-15T00:03:42;6.88;;;3.88;;
47545;SDS011;50104;52.002;4.688;2023-04-15T00:08:44;5.10;;;4.20;;
47545;SDS011;50104;52.002;4.688;2023-04-15T00:13:45;7.63;;;4.75;;
47545;SDS011;50104;52.002;4.688;2023-04-15T00:18:46;7.38;;;4.70;;
47545;SDS011;50104;52.002;4.688;2023-04-15T00:23:46;9.63;;;4.95;;
47545;SDS011;50104;52.002;4.688;2023-04-15T00:28:51;8.80;;;4.97;;
47545;SDS011;50104;52.002;4.688;2023-04-15T00:33:52;12.40;;;5.05;;
47545;SDS011;50104;52.002;4.688;2023-04-15T00:38:53;9.80;;;4.78;;
47545;SDS011;50104;52.002;4.688;2023-04-15T00:43:54;6.20;;;4.78;;
47545;SDS011;50104;52.002;4.688;2023-04-15T00:48:54;7.15;;;5.10;;
47545;SDS011;50104;52.002;4.688;2023-04-15T00:53:55;8.48;;;5.10;;
47545;SDS011;50104;52.002;4.688;2023-04-15T00:58:57;9.90;;;4.88;;
47545;SDS011;50104;52.002;4.688;2023-04-15T01:03:58;10.32;;;5.57;;
47545;SDS011;50104;52.002;4.688;2023-04-15T01:08:59;7.72;;;4.78;;
47545;SDS011;50104;52.002;4.688;2023-04-15T01:14:00;9.15;;;4.75;;
47545;SDS011;50104;52.002;4.688;2023-04-15T01:19:01;7.63;;;5.22;;
47545;SDS011;50104;52.002;4.688;2023-04-15T01:24:04;8.43;;;5.30;;
47545;SDS011;50104;52.002;4.688;2023-04-15T01:29:10;7.18;;;5.40;;
47545;SDS011;50104;52.002;4.688;2023-04-15T01:34:10;9.35;;;4.80;;
47545;SDS011;50104;52.002;4.688;2023-04-15T01:39:12;7.65;;;4.97;;
47545;SDS011;50104;52.002;4.688;2023-04-15T01:44:14;6.32;;;4.55;;
47545;SDS011;50104;52.002;4.688;2023-04-15T01:49:14;7.38;;;4.50;;
47545;SDS011;50104;52.002;4.688;2023-04-15T01:54:16;5.25;;;4.43;;
47545;SDS011;50104;52.002;4.688;2023-04-15T01:59:16;6.03;;;4.93;;
47545;SDS011;50104;52.002;4.688;2023-04-15T02:04:17;7.60;;;4.78;;
47545;SDS011;50104;52.002;4.688;2023-04-15T02:09:18;7.40;;;4.78;;
47545;SDS011;50104;52.002;4.688;2023-04-15T02:14:19;9.15;;;4.80;;
47545;SDS011;50104;52.002;4.688;2023-04-15T02:19:20;8.07;;;5.05;;
47545;SDS011;50104;52.002;4.688;2023-04-15T02:24:21;12.63;;;5.60;;
47545;SDS011;50104;52.002;4.688;2023-04-15T02:29:22;8.00;;;5.40;;
47545;SDS011;50104;52.002;4.688;2023-04-15T02:34:22;6.63;;;4.82;;
47545;SDS011;50104;52.002;4.688;2023-04-15T02:39:23;8.23;;;5.03;;
47545;SDS011;50104;52.002;4.688;2023-04-15T02:44:24;6.78;;;4.90;;
47545;SDS011;50104;52.002;4.688;2023-04-15T02:49:25;7.03;;;5.43;;
47545;SDS011;50104;52.002;4.688;2023-04-15T02:54:28;7.03;;;5.07;;
47545;SDS011;50104;52.002;4.688;2023-04-15T02:59:30;6.50;;;5.05;;
47545;SDS011;50104;52.002;4.688;2023-04-15T03:04:30;7.43;;;5.05;;
47545;SDS011;50104;52.002;4.688;2023-04-15T03:09:31;6.28;;;4.88;;
47545;SDS011;50104;52.002;4.688;2023-04-15T03:14:32;6.57;;;5.07;;
47545;SDS011;50104;52.002;4.688;2023-04-15T03:19:32;5.63;;;4.78;;
47545;SDS011;50104;52.002;4.688;2023-04-15T03:24:33;7.88;;;4.65;;
47545;SDS011;50104;52.002;4.688;2023-04-15T03:29:34;7.45;;;5.57;;
47545;SDS011;50104;52.002;4.688;2023-04-15T03:34:35;9.07;;;5.25;;
47545;SDS011;50104;52.002;4.688;2023-04-15T03:39:36;8.80;;;4.43;;
47545;SDS011;50104;52.002;4.688;2023-04-15T03:44:36;7.00;;;5.50;;
47545;SDS011;50104;52.002;4.688;2023-04-15T03:49:37;10.43;;;5.85;;
47545;SDS011;50104;52.002;4.688;2023-04-15T03:54:38;6.82;;;5.00;;
47545;SDS011;50104;52.002;4.688;2023-04-15T03:59:39;8.23;;;4.90;;
47545;SDS011;50104;52.002;4.688;2023-04-15T04:04:40;8.98;;;5.28;;
47545;SDS011;50104;52.002;4.688;2023-04-15T04:09:41;6.82;;;4.72;;
47545;SDS011;50104;52.002;4.688;2023-04-15T04:14:41;7.97;;;5.47;;
47545;SDS011;50104;52.002;4.688;2023-04-15T04:19:42;8.18;;;5.28;;
47545;SDS011;50104;52.002;4.688;2023-04-15T04:24:43;8.13;;;5.10;;
47545;SDS011;50104;52.002;4.688;2023-04-15T04:29:44;7.03;;;5.47;;
47545;SDS011;50104;52.002;4.688;2023-04-15T04:34:46;9.00;;;5.78;;
47545;SDS011;50104;52.002;4.688;2023-04-15T04:39:47;8.85;;;5.60;;
47545;SDS011;50104;52.002;4.688;2023-04-15T04:44:48;7.20;;;4.97;;
47545;SDS011;50104;52.002;4.688;2023-04-15T04:49:49;7.45;;;5.28;;
47545;SDS011;50104;52.002;4.688;2023-04-15T04:54:49;10.00;;;6.05;;
47545;SDS011;50104;52.002;4.688;2023-04-15T04:59:50;7.95;;;5.47;;
47545;SDS011;50104;52.002;4.688;2023-04-15T05:04:51;5.93;;;5.03;;
47545;SDS011;50104;52.002;4.688;2023-04-15T05:09:53;7.55;;;5.72;;
47545;SDS011;50104;52.002;4.688;2023-04-15T05:14:54;6.72;;;5.40;;
47545;SDS011;50104;52.002;4.688;2023-04-15T05:19:54;7.35;;;4.93;;
47545;SDS011;50104;52.002;4.688;2023-04-15T05:24:55;7.22;;;5.95;;
47545;SDS011;50104;52.002;4.688;2023-04-15T05:29:56;7.88;;;5.75;;
47545;SDS011;50104;52.002;4.688;2023-04-15T05:34:57;7.57;;;5.75;;
47545;SDS011;50104;52.002;4.688;2023-04-15T05:39:57;8.52;;;5.70;;
47545;SDS011;50104;52.002;4.688;2023-04-15T05:44:58;8.65;;;6.18;;
47545;SDS011;50104;52.002;4.688;2023-04-15T05:49:59;8.90;;;6.25;;
47545;SDS011;50104;52.002;4.688;2023-04-15T05:55:00;7.57;;;5.47;;
47545;SDS011;50104;52.002;4.688;2023-04-15T06:00:00;6.82;;;5.82;;
47545;SDS011;50104;52.002;4.688;2023-04-15T06:05:01;10.95;;;5.95;;
47545;SDS011;50104;52.002;4.688;2023-04-15T06:10:03;11.15;;;6.75;;
47545;SDS011;50104;52.002;4.688;2023-04-15T06:15:05;10.18;;;7.18;;
47545;SDS011;50104;52.002;4.688;2023-04-15T06:20:06;8.57;;;5.97;;
47545;SDS011;50104;52.002;4.688;2023-04-15T06:25:07;8.88;;;6.32;;
47545;SDS011;50104;52.002;4.688;2023-04-15T06:30:08;8.48;;;6.43;;
47545;SDS011;50104;52.002;4.688;2023-04-15T06:35:10;9.52;;;6.30;;
47545;SDS011;50104;52.002;4.688;2023-04-15T06:40:10;11.90;;;6.63;;
47545;SDS011;50104;52.002;4.688;2023-04-15T06:45:11;8.68;;;6.32;;
47545;SDS011;50104;52.002;4.688;2023-04-15T06:50:13;9.02;;;6.65;;
47545;SDS011;50104;52.002;4.688;2023-04-15T06:55:14;11.18;;;6.40;;
47545;SDS011;50104;52.002;4.688;2023-04-15T07:00:14;15.40;;;8.43;;
47545;SDS011;50104;52.002;4.688;2023-04-15T07:05:16;10.43;;;7.55;;
47545;SDS011;50104;52.002;4.688;2023-04-15T07:10:18;10.38;;;7.40;;
47545;SDS011;50104;52.002;4.688;2023-04-15T07:15:19;10.23;;;7.03;;
47545;SDS011;50104;52.002;4.688;2023-04-15T07:20:20;9.30;;;6.45;;
47545;SDS011;50104;52.002;4.688;2023-04-15T07:25:21;7.78;;;5.95;;
47545;SDS011;50104;52.002;4.688;2023-04-15T07:30:21;11.02;;;6.70;;
47545;SDS011;50104;52.002;4.688;2023-04-15T07:35:22;10.85;;;6.05;;
47545;SDS011;50104;52.002;4.688;2023-04-15T07:40:24;9.43;;;6.85;;
47545;SDS011;50104;52.002;4.688;2023-04-15T07:45:25;8.75;;;6.70;;
47545;SDS011;50104;52.002;4.688;2023-04-15T07:50:27;9.10;;;6.85;;
47545;SDS011;50104;52.002;4.688;2023-04-15T07:55:28;9.25;;;6.25;;
47545;SDS011;50104;52.002;4.688;2023-04-15T08:00:29;8.20;;;6.18;;
47545;SDS011;50104;52.002;4.688;2023-04-15T08:05:31;9.63;;;6.05;;
47545;SDS011;50104;52.002;4.688;2023-04-15T08:10:32;8.55;;;6.10;;
47545;SDS011;50104;52.002;4.688;2023-04-15T08:15:32;6.22;;;5.55;;
47545;SDS011;50104;52.002;4.688;2023-04-15T08:20:33;8.10;;;5.55;;
47545;SDS011;50104;52.002;4.688;2023-04-15T08:25:34;8.38;;;6.00;;
47545;SDS011;50104;52.002;4.688;2023-04-15T08:30:35;7.18;;;5.80;;
47545;SDS011;50104;52.002;4.688;2023-04-15T08:35:35;6.53;;;5.85;;
47545;SDS011;50104;52.002;4.688;2023-04-15T08:40:41;7.50;;;5.30;;
47545;SDS011;50104;52.002;4.688;2023-04-15T08:50:46;7.15;;;4.88;;
47545;SDS011;50104;52.002;4.688;2023-04-15T08:55:50;7.53;;;5.22;;
47545;SDS011;50104;52.002;4.688;2023-04-15T09:00:52;6.38;;;4.95;;
47545;SDS011;50104;52.002;4.688;2023-04-15T09:05:53;7.30;;;5.03;;
47545;SDS011;50104;52.002;4.688;2023-04-15T09:10:55;5.20;;;4.63;;
47545;SDS011;50104;52.002;4.688;2023-04-15T09:15:55;7.43;;;5.45;;
47545;SDS011;50104;52.002;4.688;2023-04-15T09:21:09;6.03;;;3.80;;
47545;SDS011;50104;52.002;4.688;2023-04-15T09:26:12;5.95;;;3.92;;
47545;SDS011;50104;52.002;4.688;2023-04-15T09:31:16;7.07;;;4.00;;
47545;SDS011;50104;52.002;4.688;2023-04-15T09:36:29;6.35;;;4.18;;
47545;SDS011;50104;52.002;4.688;2023-04-15T09:41:38;4.95;;;3.63;;
47545;SDS011;50104;52.002;4.688;2023-04-15T09:46:43;6.57;;;3.30;;
47545;SDS011;50104;52.002;4.688;2023-04-15T09:51:44;6.72;;;3.53;;
47545;SDS011;50104;52.002;4.688;2023-04-15T09:56:46;5.53;;;3.78;;
47545;SDS011;50104;52.002;4.688;2023-04-15T10:01:47;3.78;;;2.20;;
47545;SDS011;50104;52.002;4.688;2023-04-15T10:06:48;3.83;;;2.13;;
47545;SDS011;50104;52.002;4.688;2023-04-15T10:11:49;3.65;;;2.25;;
47545;SDS011;50104;52.002;4.688;2023-04-15T10:16:51;2.95;;;2.13;;
47545;SDS011;50104;52.002;4.688;2023-04-15T10:21:55;4.28;;;2.20;;
47545;SDS011;50104;52.002;4.688;2023-04-15T10:26:57;3.03;;;2.20;;
47545;SDS011;50104;52.002;4.688;2023-04-15T10:31:59;2.10;;;1.67;;
47545;SDS011;50104;52.002;4.688;2023-04-15T10:37:03;3.90;;;2.67;;
47545;SDS011;50104;52.002;4.688;2023-04-15T10:42:07;4.35;;;2.75;;
47545;SDS011;50104;52.002;4.688;2023-04-15T10:47:19;2.42;;;2.20;;
47545;SDS011;50104;52.002;4.688;2023-04-15T10:52:22;4.90;;;2.10;;
47545;SDS011;50104;52.002;4.688;2023-04-15T10:57:26;2.58;;;1.75;;
47545;SDS011;50104;52.002;4.688;2023-04-15T11:02:51;2.15;;;1.95;;
47545;SDS011;50104;52.002;4.688;2023-04-15T11:07:57;1.80;;;1.70;;
47545;SDS011;50104;52.002;4.688;2023-04-15T11:12:59;4.18;;;1.95;;
47545;SDS011;50104;52.002;4.688;2023-04-15T11:18:12;5.85;;;2.50;;
47545;SDS011;50104;52.002;4.688;2023-04-15T11:23:18;3.00;;;2.70;;
47545;SDS011;50104;52.002;4.688;2023-04-15T11:28:28;4.95;;;2.90;;
47545;SDS011;50104;52.002;4.688;2023-04-15T11:33:31;3.75;;;3.08;;
47545;SDS011;50104;52.002;4.688;2023-04-15T11:38:32;4.10;;;2.75;;
47545;SDS011;50104;52.002;4.688;2023-04-15T11:43:34;3.95;;;2.90;;
47545;SDS011;50104;52.002;4.688;2023-04-15T11:48:35;4.75;;;2.80;;
47545;SDS011;50104;52.002;4.688;2023-04-15T11:58:43;5.00;;;2.85;;
47545;SDS011;50104;52.002;4.688;2023-04-15T12:03:46;2.22;;;2.03;;
47545;SDS011;50104;52.002;4.688;2023-04-15T12:14:11;2.65;;;2.45;;
47545;SDS011;50104;52.002;4.688;2023-04-15T12:19:26;8.70;;;2.08;;
47545;SDS011;50104;52.002;4.688;2023-04-15T12:24:32;2.55;;;2.08;;
47545;SDS011;50104;52.002;4.688;2023-04-15T12:29:36;1.67;;;1.52;;
47545;SDS011;50104;52.002;4.688;2023-04-15T12:34:39;3.15;;;1.90;;
47545;SDS011;50104;52.002;4.688;2023-04-15T12:39:44;1.73;;;1.40;;
47545;SDS011;50104;52.002;4.688;2023-04-15T12:44:47;1.98;;;1.55;;
47545;SDS011;50104;52.002;4.688;2023-04-15T12:49:48;1.40;;;1.30;;
47545;SDS011;50104;52.002;4.688;2023-04-15T12:54:49;1.63;;;1.30;;
47545;SDS011;50104;52.002;4.688;2023-04-15T12:59:50;2.50;;;1.20;;
47545;SDS011;50104;52.002;4.688;2023-04-15T13:04:51;2.85;;;1.50;;
47545;SDS011;50104;52.002;4.688;2023-04-15T13:09:52;2.17;;;1.40;;
47545;SDS011;50104;52.002;4.688;2023-04-15T13:14:52;2.25;;;1.27;;
47545;SDS011;50104;52.002;4.688;2023-04-15T13:19:53;3.47;;;1.52;;
47545;SDS011;50104;52.002;4.688;2023-04-15T13:24:54;1.55;;;1.30;;
47545;SDS011;50104;52.002;4.688;2023-04-15T13:29:55;1.98;;;1.50;;
47545;SDS011;50104;52.002;4.688;2023-04-15T13:34:56;2.25;;;1.52;;
47545;SDS011;50104;52.002;4.688;2023-04-15T13:39:57;3.55;;;1.40;;
47545;SDS011;50104;52.002;4.688;2023-04-15T13:44:57;2.83;;;1.50;;
47545;SDS011;50104;52.002;4.688;2023-04-15T13:49:58;2.60;;;1.52;;
47545;SDS011;50104;52.002;4.688;2023-04-15T13:54:59;2.88;;;1.10;;
47545;SDS011;50104;52.002;4.688;2023-04-15T14:00:00;3.25;;;1.60;;
47545;SDS011;50104;52.002;4.688;2023-04-15T14:05:03;2.22;;;0.95;;
47545;SDS011;50104;52.002;4.688;2023-04-15T14:10:05;2.72;;;1.27;;
47545;SDS011;50104;52.002;4.688;2023-04-15T14:15:06;1.73;;;0.93;;
47545;SDS011;50104;52.002;4.688;2023-04-15T14:20:08;1.92;;;1.00;;
47545;SDS011;50104;52.002;4.688;2023-04-15T14:25:09;1.58;;;0.80;;
47545;SDS011;50104;52.002;4.688;2023-04-15T14:30:10;1.05;;;0.88;;
47545;SDS011;50104;52.002;4.688;2023-04-15T14:35:11;0.90;;;0.70;;
47545;SDS011;50104;52.002;4.688;2023-04-15T14:40:12;2.58;;;0.65;;
47545;SDS011;50104;52.002;4.688;2023-04-15T14:45:13;2.83;;;1.10;;
47545;SDS011;50104;52.002;4.688;2023-04-15T14:50:14;3.60;;;1.40;;
47545;SDS011;50104;52.002;4.688;2023-04-15T14:55:15;3.30;;;0.90;;
47545;SDS011;50104;52.002;4.688;2023-04-15T15:00:16;2.83;;;0.90;;
47545;SDS011;50104;52.002;4.688;2023-04-15T15:05:17;2.58;;;0.70;;
47545;SDS011;50104;52.002;4.688;2023-04-15T15:10:18;4.38;;;0.80;;
47545;SDS011;50104;52.002;4.688;2023-04-15T15:15:19;5.55;;;1.25;;
47545;SDS011;50104;52.002;4.688;2023-04-15T15:20:20;2.80;;;0.80;;
47545;SDS011;50104;52.002;4.688;2023-04-15T15:25:21;1.75;;;1.05;;
47545;SDS011;50104;52.002;4.688;2023-04-15T15:30:22;2.55;;;0.88;;
47545;SDS011;50104;52.002;4.688;2023-04-15T15:35:23;1.98;;;1.15;;
47545;SDS011;50104;52.002;4.688;2023-04-15T15:40:25;2.42;;;1.30;;
47545;SDS011;50104;52.002;4.688;2023-04-15T15:45:26;19.90;;;11.57;;
47545;SDS011;50104;52.002;4.688;2023-04-15T15:50:27;23.13;;;13.45;;
47545;SDS011;50104;52.002;4.688;2023-04-15T15:55:27;3.13;;;2.00;;
47545;SDS011;50104;52.002;4.688;2023-04-15T16:00:28;3.83;;;1.90;;
47545;SDS011;50104;52.002;4.688;2023-04-15T16:05:29;2.50;;;1.45;;
47545;SDS011;50104;52.002;4.688;2023-04-15T16:10:30;3.22;;;1.50;;
47545;SDS011;50104;52.002;4.688;2023-04-15T16:15:31;3.05;;;0.95;;
47545;SDS011;50104;52.002;4.688;2023-04-15T16:20:32;3.50;;;1.50;;
47545;SDS011;50104;52.002;4.688;2023-04-15T16:25:32;5.00;;;1.30;;
47545;SDS011;50104;52.002;4.688;2023-04-15T16:30:35;5.63;;;1.30;;
47545;SDS011;50104;52.002;4.688;2023-04-15T16:35:37;6.10;;;2.25;;
47545;SDS011;50104;52.002;4.688;2023-04-15T16:40:37;5.72;;;2.40;;
47545;SDS011;50104;52.002;4.688;2023-04-15T16:45:38;6.15;;;2.47;;
47545;SDS011;50104;52.002;4.688;2023-04-15T16:50:39;4.80;;;2.00;;
47545;SDS011;50104;52.002;4.688;2023-04-15T16:55:40;11.52;;;5.70;;
47545;SDS011;50104;52.002;4.688;2023-04-15T17:00:41;5.00;;;1.58;;
47545;SDS011;50104;52.002;4.688;2023-04-15T17:05:42;4.32;;;1.80;;
47545;SDS011;50104;52.002;4.688;2023-04-15T17:10:43;5.40;;;2.58;;
47545;SDS011;50104;52.002;4.688;2023-04-15T17:15:44;5.32;;;1.50;;
47545;SDS011;50104;52.002;4.688;2023-04-15T17:20:45;2.63;;;2.00;;
47545;SDS011;50104;52.002;4.688;2023-04-15T17:25:46;7.30;;;1.40;;
47545;SDS011;50104;52.002;4.688;2023-04-15T17:30:47;2.97;;;1.35;;
47545;SDS011;50104;52.002;4.688;2023-04-15T17:35:47;3.60;;;1.10;;
47545;SDS011;50104;52.002;4.688;2023-04-15T17:40:48;2.58;;;1.30;;
47545;SDS011;50104;52.002;4.688;2023-04-15T17:45:49;6.68;;;1.20;;
47545;SDS011;50104;52.002;4.688;2023-04-15T17:50:50;6.22;;;1.75;;
47545;SDS011;50104;52.002;4.688;2023-04-15T17:55:51;4.00;;;1.25;;
47545;SDS011;50104;52.002;4.688;2023-04-15T18:00:52;5.50;;;1.10;;
47545;SDS011;50104;52.002;4.688;2023-04-15T18:05:54;7.85;;;1.50;;
47545;SDS011;50104;52.002;4.688;2023-04-15T18:10:54;2.72;;;1.30;;
47545;SDS011;50104;52.002;4.688;2023-04-15T18:15:55;8.07;;;2.38;;
47545;SDS011;50104;52.002;4.688;2023-04-15T18:20:56;5.95;;;1.60;;
47545;SDS011;50104;52.002;4.688;2023-04-15T18:25:57;8.48;;;1.75;;
47545;SDS011;50104;52.002;4.688;2023-04-15T18:30:58;5.78;;;1.60;;
47545;SDS011;50104;52.002;4.688;2023-04-15T18:35:58;3.78;;;1.10;;
47545;SDS011;50104;52.002;4.688;2023-04-15T18:41:01;4.07;;;1.30;;
47545;SDS011;50104;52.002;4.688;2023-04-15T18:46:02;3.28;;;1.40;;
47545;SDS011;50104;52.002;4.688;2023-04-15T18:51:07;7.05;;;2.38;;
47545;SDS011;50104;52.002;4.688;2023-04-15T18:56:08;3.75;;;1.38;;
47545;SDS011;50104;52.002;4.688;2023-04-15T19:01:09;2.90;;;1.20;;
47545;SDS011;50104;52.002;4.688;2023-04-15T19:06:09;4.45;;;0.98;;
47545;SDS011;50104;52.002;4.688;2023-04-15T19:11:10;7.93;;;1.15;;
47545;SDS011;50104;52.002;4.688;2023-04-15T19:16:11;8.57;;;1.40;;
47545;SDS011;50104;52.002;4.688;2023-04-15T19:21:12;8.77;;;1.50;;
47545;SDS011;50104;52.002;4.688;2023-04-15T19:26:14;5.72;;;1.55;;
47545;SDS011;50104;52.002;4.688;2023-04-15T19:31:14;2.58;;;1.30;;
47545;SDS011;50104;52.002;4.688;2023-04-15T19:36:15;5.10;;;1.45;;
47545;SDS011;50104;52.002;4.688;2023-04-15T19:41:17;3.38;;;1.60;;
47545;SDS011;50104;52.002;4.688;2023-04-15T19:46:18;3.35;;;1.42;;
47545;SDS011;50104;52.002;4.688;2023-04-15T19:51:18;4.93;;;1.27;;
47545;SDS011;50104;52.002;4.688;2023-04-15T19:56:19;3.20;;;1.23;;
47545;SDS011;50104;52.002;4.688;2023-04-15T20:01:20;9.35;;;1.45;;
47545;SDS011;50104;52.002;4.688;2023-04-15T20:06:21;8.55;;;1.50;;
47545;SDS011;50104;52.002;4.688;2023-04-15T20:11:22;7.15;;;1.75;;
47545;SDS011;50104;52.002;4.688;2023-04-15T20:16:28;4.13;;;1.58;;
47545;SDS011;50104;52.002;4.688;2023-04-15T20:21:29;5.70;;;1.05;;
47545;SDS011;50104;52.002;4.688;2023-04-15T20:26:30;4.40;;;2.03;;
47545;SDS011;50104;52.002;4.688;2023-04-15T20:31:31;4.43;;;1.35;;
47545;SDS011;50104;52.002;4.688;2023-04-15T20:36:32;5.70;;;1.40;;
47545;SDS011;50104;52.002;4.688;2023-04-15T20:41:33;10.27;;;1.40;;
47545;SDS011;50104;52.002;4.688;2023-04-15T20:46:34;5.93;;;1.40;;
47545;SDS011;50104;52.002;4.688;2023-04-15T20:51:35;5.70;;;1.63;;
47545;SDS011;50104;52.002;4.688;2023-04-15T20:56:37;4.40;;;2.10;;
47545;SDS011;50104;52.002;4.688;2023-04-15T21:01:38;2.75;;;0.88;;
47545;SDS011;50104;52.002;4.688;2023-04-15T21:06:39;2.97;;;1.02;;
47545;SDS011;50104;52.002;4.688;2023-04-15T21:11:40;9.68;;;2.15;;
47545;SDS011;50104;52.002;4.688;2023-04-15T21:16:46;4.70;;;1.80;;
47545;SDS011;50104;52.002;4.688;2023-04-15T21:21:47;1.63;;;1.40;;
47545;SDS011;50104;52.002;4.688;2023-04-15T21:26:48;7.82;;;2.70;;
47545;SDS011;50104;52.002;4.688;2023-04-15T21:31:49;3.92;;;0.95;;
47545;SDS011;50104;52.002;4.688;2023-04-15T21:36:50;5.75;;;1.08;;
47545;SDS011;50104;52.002;4.688;2023-04-15T21:41:50;2.78;;;0.98;;
47545;SDS011;50104;52.002;4.688;2023-04-15T21:46:51;2.45;;;0.77;;
47545;SDS011;50104;52.002;4.688;2023-04-15T21:51:52;4.65;;;0.90;;
47545;SDS011;50104;52.002;4.688;2023-04-15T21:56:53;3.42;;;1.10;;
47545;SDS011;50104;52.002;4.688;2023-04-15T22:01:54;3.42;;;1.30;;
47545;SDS011;50104;52.002;4.688;2023-04-15T22:06:54;2.70;;;1.50;;
47545;SDS011;50104;52.002;4.688;2023-04-15T22:12:02;4.05;;;1.90;;
47545;SDS011;50104;52.002;4.688;2023-04-15T22:17:03;1.67;;;0.90;;
47545;SDS011;50104;52.002;4.688;2023-04-15T22:22:03;5.22;;;1.35;;
47545;SDS011;50104;52.002;4.688;2023-04-15T22:27:04;1.17;;;1.08;;
47545;SDS011;50104;52.002;4.688;2023-04-15T22:32:06;2.83;;;1.33;;
47545;SDS011;50104;52.002;4.688;2023-04-15T22:37:07;4.57;;;1.58;;
47545;SDS011;50104;52.002;4.688;2023-04-15T22:42:07;4.43;;;1.08;;
47545;SDS011;50104;52.002;4.688;2023-04-15T22:47:08;6.00;;;1.40;;
47545;SDS011;50104;52.002;4.688;2023-04-15T22:52:12;1.60;;;1.30;;
47545;SDS011;50104;52.002;4.688;2023-04-15T22:57:13;3.25;;;2.05;;
47545;SDS011;50104;52.002;4.688;2023-04-15T23:02:14;5.38;;;1.10;;
47545;SDS011;50104;52.002;4.688;2023-04-15T23:07:14;2.85;;;1.52;;
47545;SDS011;50104;52.002;4.688;2023-04-15T23:12:15;4.07;;;1.73;;
47545;SDS011;50104;52.002;4.688;2023-04-15T23:17:16;2.20;;;1.45;;
47545;SDS011;50104;52.002;4.688;2023-04-15T23:22:17;3.53;;;2.13;;
47545;SDS011;50104;52.002;4.688;2023-04-15T23:27:17;4.78;;;1.77;;
47545;SDS011;50104;52.002;4.688;2023-04-15T23:32:18;3.58;;;1.98;;
47545;SDS011;50104;52.002;4.688;2023-04-15T23:37:19;5.25;;;1.95;;
47545;SDS011;50104;52.002;4.688;2023-04-15T23:42:20;8.05;;;1.90;;
47545;SDS011;50104;52.002;4.688;2023-04-15T23:47:22;8.00;;;2.22;;
47545;SDS011;50104;52.002;4.688;2023-04-15T23:52:23;6.40;;;2.38;;
47545;SDS011;50104;52.002;4.688;2023-04-15T23:57:23;8.13;;;2.10;;
